createdAt,value
2022-09-15T00:01:22.497Z,155788.66
2022-09-15T00:03:53.314Z,155829.09
2022-09-15T00:06:26.096Z,155808.25
2022-09-15T00:08:56.636Z,155847.38
2022-09-15T00:11:29.573Z,155800.38
2022-09-15T00:14:02.593Z,155826.50
2022-09-15T00:16:34.888Z,155805.59
2022-09-15T00:19:06.729Z,155803.03
2022-09-15T00:21:43.320Z,155819.97
2022-09-15T00:24:13.758Z,155803.03
2022-09-15T00:26:44.866Z,155799.09
2022-09-15T00:29:15.357Z,155783.47
2022-09-15T00:31:45.670Z,155773.03
2022-09-15T00:34:17.216Z,155800.38
2022-09-15T00:36:50.247Z,155769.09
2022-09-15T00:39:20.654Z,155752.13
2022-09-15T00:41:51.001Z,155750.78
2022-09-15T00:44:55.148Z,155756.00
2022-09-15T00:47:31.695Z,155741.69
2022-09-15T00:50:06.040Z,155737.78
2022-09-15T00:52:47.470Z,155737.78
2022-09-15T00:55:24.367Z,155728.66
2022-09-15T00:57:58.992Z,155707.78
2022-09-15T01:00:31.813Z,155710.38
2022-09-15T01:03:03.647Z,155690.81
2022-09-15T01:05:38.246Z,155673.88
2022-09-15T01:08:14.581Z,155680.38
2022-09-15T01:10:45.057Z,155672.59
2022-09-15T01:13:17.320Z,155645.19
2022-09-15T01:15:57.853Z,155643.91
2022-09-15T01:18:35.361Z,155660.84
2022-09-15T01:21:18.276Z,155642.63
2022-09-15T01:24:21.803Z,155646.50
2022-09-15T01:27:41.160Z,155621.72
2022-09-15T01:30:17.455Z,155624.34
2022-09-15T01:33:06.768Z,155593.09
2022-09-15T01:35:52.024Z,155598.28
2022-09-15T01:38:32.140Z,155593.09
2022-09-15T01:41:08.362Z,155568.31
2022-09-15T01:43:43.937Z,155565.69
2022-09-15T01:46:20.358Z,155565.69
2022-09-15T01:48:52.665Z,155559.19
2022-09-15T01:51:24.368Z,155550.06
2022-09-15T01:53:56.644Z,155551.34
2022-09-15T01:56:27.123Z,155534.38
2022-09-15T01:58:57.400Z,155535.66
2022-09-15T02:01:40.756Z,155529.16
2022-09-15T02:04:18.154Z,155540.88
2022-09-15T02:06:56.341Z,155551.34
2022-09-15T02:09:32.636Z,155530.44
2022-09-15T02:12:11.150Z,155527.88
2022-09-15T02:14:56.140Z,155508.31
2022-09-15T02:17:35.572Z,155518.75
2022-09-15T02:20:16.279Z,155501.78
2022-09-15T02:22:53.361Z,155495.28
2022-09-15T02:25:28.148Z,155504.41
2022-09-15T02:28:03.920Z,155520.03
2022-09-15T02:30:35.965Z,155517.41
2022-09-15T02:33:12.412Z,155522.66
2022-09-15T02:35:43.439Z,155517.41
2022-09-15T02:38:15.126Z,155495.28
2022-09-15T02:40:47.856Z,155478.34
2022-09-15T02:43:19.529Z,155454.88
2022-09-15T02:45:50.096Z,155454.88
2022-09-15T02:48:23.160Z,155437.97
2022-09-15T02:50:53.282Z,155415.78
2022-09-15T02:53:23.302Z,155406.66
2022-09-15T02:55:53.362Z,155397.53
2022-09-15T02:58:23.981Z,155401.44
2022-09-15T03:00:55.946Z,155391.03
2022-09-15T03:03:28.695Z,155396.25
2022-09-15T03:06:16.505Z,155388.44
2022-09-15T03:08:50.879Z,155374.13
2022-09-15T03:11:22.463Z,155358.50
2022-09-15T03:13:56.565Z,155357.16
2022-09-15T03:16:27.309Z,155327.19
2022-09-15T03:19:02.186Z,155310.22
2022-09-15T03:21:33.002Z,155273.78
2022-09-15T03:24:03.185Z,155238.56
2022-09-15T03:26:33.286Z,155260.72
2022-09-15T03:29:03.396Z,155228.16
2022-09-15T03:31:33.480Z,155239.91
2022-09-15T03:34:06.451Z,155222.94
2022-09-15T03:36:36.816Z,155191.72
2022-09-15T03:39:07.043Z,155172.16
2022-09-15T03:41:37.202Z,155173.47
2022-09-15T03:44:07.745Z,155159.19
2022-09-15T03:46:37.822Z,155142.22
2022-09-15T03:49:10.495Z,155170.88
2022-09-15T03:51:40.634Z,155161.75
2022-09-15T03:54:10.816Z,155202.13
2022-09-15T03:56:41.401Z,155216.44
2022-09-15T03:59:11.899Z,155234.69
2022-09-15T04:01:42.030Z,155159.19
2022-09-15T04:04:14.823Z,155109.69
2022-09-15T04:06:45.099Z,155087.50
2022-09-15T04:09:15.357Z,155121.41
2022-09-15T04:11:45.537Z,155139.66
2022-09-15T04:14:19.172Z,155150.06
2022-09-15T04:16:49.230Z,155105.78
2022-09-15T04:19:21.863Z,155122.69
2022-09-15T04:21:51.946Z,155107.06
2022-09-15T04:24:22.051Z,155142.22
2022-09-15T04:26:52.203Z,155108.38
2022-09-15T04:29:23.168Z,155108.38
2022-09-15T04:31:54.091Z,155116.19
2022-09-15T04:34:27.290Z,155097.94
2022-09-15T04:36:57.409Z,155113.56
2022-09-15T04:39:27.477Z,155099.25
2022-09-15T04:41:57.953Z,155094.03
2022-09-15T04:44:28.031Z,155086.22
2022-09-15T04:46:58.242Z,155082.28
2022-09-15T04:49:31.879Z,155095.38
2022-09-15T04:52:02.022Z,155084.91
2022-09-15T04:54:32.105Z,155095.38
2022-09-15T04:57:02.205Z,155095.38
2022-09-15T04:59:32.400Z,155094.03
2022-09-15T05:02:03.094Z,155100.59
2022-09-15T05:04:35.868Z,155107.06
2022-09-15T05:07:06.111Z,155094.03
2022-09-15T05:09:36.336Z,155079.72
2022-09-15T05:12:06.508Z,155090.13
2022-09-15T05:14:36.583Z,155095.38
2022-09-15T05:17:06.699Z,155086.22
2022-09-15T05:19:39.442Z,155104.50
2022-09-15T05:22:09.552Z,155100.59
2022-09-15T05:24:39.819Z,155113.56
2022-09-15T05:27:09.985Z,155116.19
2022-09-15T05:29:40.159Z,155126.59
2022-09-15T05:32:10.263Z,155096.66
2022-09-15T05:34:43.099Z,155109.69
2022-09-15T05:37:13.360Z,155138.31
2022-09-15T05:39:43.387Z,155134.44
2022-09-15T05:42:13.414Z,155146.13
2022-09-15T05:44:43.483Z,155137.03
2022-09-15T05:47:13.620Z,155180.00
2022-09-15T05:49:46.382Z,155189.13
2022-09-15T05:52:16.450Z,155185.22
2022-09-15T05:54:46.486Z,155203.41
2022-09-15T05:57:16.568Z,155203.41
2022-09-15T05:59:46.617Z,155208.63
2022-09-15T06:02:17.012Z,155236.00
2022-09-15T06:04:49.859Z,155238.56
2022-09-15T06:07:20.119Z,155217.72
2022-09-15T06:09:50.432Z,155238.56
2022-09-15T06:12:20.560Z,155254.22
2022-09-15T06:14:51.197Z,155288.06
2022-09-15T06:17:22.360Z,155282.84
2022-09-15T06:19:55.205Z,155288.06
2022-09-15T06:22:25.566Z,155285.47
2022-09-15T06:24:55.868Z,155299.81
2022-09-15T06:27:25.912Z,155297.19
2022-09-15T06:29:56.413Z,155268.56
2022-09-15T06:32:26.640Z,155303.72
2022-09-15T06:34:59.949Z,155286.75
2022-09-15T06:37:30.250Z,155310.22
2022-09-15T06:40:00.435Z,155349.38
2022-09-15T06:42:30.697Z,155358.50
2022-09-15T06:45:01.371Z,155374.13
2022-09-15T06:47:34.160Z,155368.91
2022-09-15T06:50:07.604Z,155415.78
2022-09-15T06:52:37.684Z,155441.81
2022-09-15T06:55:08.467Z,155477.00
2022-09-15T06:57:38.635Z,155497.91
2022-09-15T07:00:10.343Z,155517.41
2022-09-15T07:02:40.509Z,155548.72
2022-09-15T07:05:13.854Z,155559.19
2022-09-15T07:07:44.121Z,155602.22
2022-09-15T07:10:14.164Z,155606.09
2022-09-15T07:12:44.465Z,155643.91
2022-09-15T07:15:14.780Z,155668.69
2022-09-15T07:17:44.938Z,155692.16
2022-09-15T07:20:17.816Z,155728.66
2022-09-15T07:22:47.869Z,155770.41
2022-09-15T07:25:17.994Z,155778.25
2022-09-15T07:27:48.203Z,155778.25
2022-09-15T07:30:18.824Z,155791.25
2022-09-15T07:32:49.059Z,155870.81
2022-09-15T07:35:22.115Z,155903.44
2022-09-15T07:37:52.189Z,155923.00
2022-09-15T07:40:22.353Z,155926.94
2022-09-15T07:42:52.608Z,155950.38
2022-09-15T07:45:22.928Z,155942.56
2022-09-15T07:47:53.022Z,155912.56
2022-09-15T07:50:26.052Z,155941.28
2022-09-15T07:52:58.531Z,155925.59
2022-09-15T07:55:30.491Z,155900.81
2022-09-15T07:58:01.432Z,155913.88
2022-09-15T08:00:32.849Z,155950.38
2022-09-15T08:03:03.025Z,155989.56
2022-09-15T08:05:40.342Z,155960.81
2022-09-15T08:08:12.510Z,155990.91
2022-09-15T08:10:43.353Z,156035.22
2022-09-15T08:13:13.464Z,156084.81
2022-09-15T08:15:45.406Z,156086.16
2022-09-15T08:18:15.597Z,156134.41
2022-09-15T08:20:48.411Z,156117.47
2022-09-15T08:23:18.596Z,156138.34
2022-09-15T08:25:51.556Z,156211.50
2022-09-15T08:28:21.796Z,156276.75
2022-09-15T08:30:52.523Z,156336.81
2022-09-15T08:33:23.398Z,156451.75
2022-09-15T08:35:56.062Z,156455.69
2022-09-15T08:38:26.307Z,156466.13
2022-09-15T08:41:02.580Z,156485.72
2022-09-15T08:43:39.453Z,156464.84
2022-09-15T08:46:14.793Z,156484.38
2022-09-15T08:48:51.621Z,156462.22
2022-09-15T08:51:32.387Z,156447.84
2022-09-15T08:54:06.802Z,156466.13
2022-09-15T08:56:38.637Z,156574.56
2022-09-15T08:59:08.944Z,156590.28
2022-09-15T09:01:52.134Z,156506.63
2022-09-15T09:04:36.173Z,156497.47
2022-09-15T09:07:21.518Z,156489.59
2022-09-15T09:09:59.397Z,156484.38
2022-09-15T09:13:03.615Z,156470.06
2022-09-15T09:15:45.289Z,156472.66
2022-09-15T09:18:47.194Z,156515.78
2022-09-15T09:21:26.776Z,156613.75
2022-09-15T09:24:07.696Z,156671.28
2022-09-15T09:26:40.284Z,156656.91
2022-09-15T09:29:18.850Z,156603.31
2022-09-15T09:31:51.959Z,156611.16
2022-09-15T09:34:30.927Z,156582.41
2022-09-15T09:37:03.908Z,156588.94
2022-09-15T09:39:37.405Z,156519.66
2022-09-15T09:42:09.540Z,156515.78
2022-09-15T09:44:39.920Z,156544.47
2022-09-15T09:47:10.333Z,156493.53
2022-09-15T09:49:46.598Z,156517.06
2022-09-15T09:52:34.424Z,156515.78
2022-09-15T09:55:24.259Z,156581.13
2022-09-15T09:57:54.918Z,156578.50
2022-09-15T10:00:36.237Z,156664.75
2022-09-15T10:03:14.464Z,156671.28
2022-09-15T10:05:45.338Z,156651.66
2022-09-15T10:08:21.132Z,156659.53
2022-09-15T10:11:00.446Z,156734.03
2022-09-15T10:13:31.106Z,156768.00
2022-09-15T10:16:04.430Z,156778.44
2022-09-15T10:18:37.597Z,156745.81
2022-09-15T10:21:08.724Z,156838.56
2022-09-15T10:23:39.771Z,156869.97
2022-09-15T10:26:34.318Z,156914.47
2022-09-15T10:29:16.169Z,156854.25
2022-09-15T10:31:47.300Z,156931.47
2022-09-15T10:34:30.611Z,156838.56
2022-09-15T10:37:10.278Z,156751.03
2022-09-15T10:39:53.688Z,156690.88
2022-09-15T10:42:40.119Z,156667.34
2022-09-15T10:45:28.093Z,156671.28
2022-09-15T10:48:14.269Z,156651.66
2022-09-15T10:50:55.091Z,156713.06
2022-09-15T10:53:53.630Z,156751.03
2022-09-15T10:56:32.840Z,156799.41
2022-09-15T10:59:37.616Z,156898.69
2022-09-15T11:02:40.536Z,156917.06
2022-09-15T11:05:30.621Z,156961.53
2022-09-15T11:08:15.906Z,156966.75
2022-09-15T11:10:53.145Z,156975.91
2022-09-15T11:13:30.497Z,157070.06
2022-09-15T11:16:13.176Z,157051.75
2022-09-15T11:19:07.576Z,156970.69
2022-09-15T11:21:42.936Z,156945.84
2022-09-15T11:24:44.018Z,156915.78
2022-09-15T11:27:22.666Z,156930.16
2022-09-15T11:30:05.438Z,156932.75
2022-09-15T11:32:43.569Z,156979.84
2022-09-15T11:35:44.264Z,156951.06
2022-09-15T11:38:34.829Z,157007.28
2022-09-15T11:41:17.239Z,156949.78
2022-09-15T11:43:57.452Z,156964.13
2022-09-15T11:46:35.507Z,156903.97
2022-09-15T11:49:12.777Z,156911.84
2022-09-15T11:51:50.996Z,156939.31
2022-09-15T11:54:31.496Z,156879.09
2022-09-15T11:57:03.273Z,156900.03
2022-09-15T11:59:43.260Z,156928.81
2022-09-15T12:02:23.530Z,156985.06
2022-09-15T12:05:10.459Z,156931.47
2022-09-15T12:07:48.258Z,156931.47
2022-09-15T12:10:23.839Z,156932.75
2022-09-15T12:12:56.742Z,156934.03
2022-09-15T12:15:30.755Z,156975.91
2022-09-15T12:18:34.442Z,156956.31
2022-09-15T12:21:12.186Z,156947.13
2022-09-15T12:23:47.792Z,156909.19
2022-09-15T12:26:21.042Z,156849.03
2022-09-15T12:29:02.421Z,156852.97
2022-09-15T12:31:43.131Z,156862.13
2022-09-15T12:34:38.605Z,156852.97
2022-09-15T12:37:16.704Z,156856.88
2022-09-15T12:39:49.502Z,156824.19
2022-09-15T12:42:25.770Z,156829.47
2022-09-15T12:45:00.209Z,156837.28
2022-09-15T12:47:35.501Z,156807.22
2022-09-15T12:50:12.101Z,156826.81
2022-09-15T12:52:52.447Z,156824.19
2022-09-15T12:55:27.470Z,156828.13
2022-09-15T12:58:00.943Z,156816.38
2022-09-15T13:01:06.811Z,156795.47
2022-09-15T13:04:09.649Z,156815.09
2022-09-15T13:06:40.864Z,156809.84
2022-09-15T13:09:31.499Z,156804.63
2022-09-15T13:12:06.729Z,156800.69
2022-09-15T13:14:43.452Z,156788.91
2022-09-15T13:17:19.501Z,156764.06
2022-09-15T13:19:53.371Z,156760.19
2022-09-15T13:22:30.474Z,156813.75
2022-09-15T13:25:13.415Z,156800.69
2022-09-15T13:27:48.217Z,156788.91
2022-09-15T13:30:33.674Z,156771.94
2022-09-15T13:33:16.540Z,156748.41
2022-09-15T13:36:03.987Z,156689.59
2022-09-15T13:39:05.871Z,156663.41
2022-09-15T13:42:23.769Z,156616.41
2022-09-15T13:45:29.589Z,156591.56
2022-09-15T13:48:56.221Z,156569.34
2022-09-15T13:51:30.855Z,156514.44
2022-09-15T13:54:03.623Z,156493.53
2022-09-15T13:56:41.877Z,156509.19
2022-09-15T13:59:24.489Z,156547.16
2022-09-15T14:01:58.169Z,156485.72
2022-09-15T14:04:32.083Z,156471.34
2022-09-15T14:07:04.250Z,156487.03
2022-09-15T14:09:39.202Z,156496.19
2022-09-15T14:12:15.663Z,156518.34
2022-09-15T14:14:53.931Z,156592.88
2022-09-15T14:17:26.940Z,156552.38
2022-09-15T14:19:59.180Z,156581.13
2022-09-15T14:22:31.604Z,156604.66
2022-09-15T14:25:03.870Z,156609.88
2022-09-15T14:27:36.880Z,156654.25
2022-09-15T14:30:20.196Z,156641.22
2022-09-15T14:32:52.912Z,156583.72
2022-09-15T14:35:26.276Z,156541.88
2022-09-15T14:38:00.108Z,156458.28
2022-09-15T14:40:33.312Z,156445.25
2022-09-15T14:43:03.392Z,156472.66
2022-09-15T14:45:56.757Z,156408.66
2022-09-15T14:48:30.900Z,156376.03
2022-09-15T14:51:05.743Z,156389.06
2022-09-15T14:53:39.760Z,156345.94
2022-09-15T14:56:14.979Z,156343.31
2022-09-15T14:58:48.660Z,156271.53
2022-09-15T15:01:26.460Z,156241.50
2022-09-15T15:04:02.469Z,156206.28
2022-09-15T15:06:38.673Z,156084.81
2022-09-15T15:09:13.438Z,156056.13
2022-09-15T15:11:45.049Z,155988.28
2022-09-15T15:14:16.683Z,155966.06
2022-09-15T15:17:00.920Z,155977.84
2022-09-15T15:19:39.950Z,156024.78
2022-09-15T15:22:17.562Z,155881.28
2022-09-15T15:24:50.489Z,155874.72
2022-09-15T15:27:42.556Z,155992.22
2022-09-15T15:30:49.870Z,155879.94
2022-09-15T15:33:28.151Z,155833.00
2022-09-15T15:36:09.396Z,155813.44
2022-09-15T15:38:47.224Z,155754.72
2022-09-15T15:41:24.293Z,155776.94
2022-09-15T15:44:08.252Z,155775.63
2022-09-15T15:46:53.343Z,155809.53
2022-09-15T15:49:30.288Z,155831.72
2022-09-15T15:52:01.862Z,155812.16
2022-09-15T15:54:32.400Z,155759.91
2022-09-15T15:57:23.753Z,155819.97
2022-09-15T15:59:57.270Z,155787.38
2022-09-15T16:02:28.496Z,155783.47
2022-09-15T16:05:01.171Z,155761.22
2022-09-15T16:07:33.391Z,155779.53
2022-09-15T16:10:05.487Z,155778.25
2022-09-15T16:12:35.672Z,155736.44
2022-09-15T16:15:09.540Z,155626.94
2022-09-15T16:17:44.360Z,155654.34
2022-09-15T16:20:20.356Z,155728.66
2022-09-15T16:22:50.929Z,155770.41
2022-09-15T16:25:30.901Z,155750.78
2022-09-15T16:28:01.009Z,155671.25
2022-09-15T16:30:31.490Z,155660.84
2022-09-15T16:33:02.289Z,155673.88
2022-09-15T16:35:43.192Z,155497.91
2022-09-15T16:38:13.372Z,155368.91
2022-09-15T16:40:43.833Z,155363.69
2022-09-15T16:43:16.708Z,155361.06
2022-09-15T16:45:48.214Z,155342.81
2022-09-15T16:48:18.894Z,155314.16
2022-09-15T16:53:43.981Z,155368.91
2022-09-15T16:56:15.574Z,155350.66
2022-09-15T16:58:46.398Z,155375.41
2022-09-15T17:01:20.609Z,155470.50
2022-09-15T17:03:51.048Z,155410.56
2022-09-15T17:06:24.099Z,155316.72
2022-09-15T17:08:54.428Z,155379.31
2022-09-15T17:11:25.631Z,155354.56
2022-09-15T17:13:55.880Z,155418.41
2022-09-15T17:16:26.324Z,155428.84
2022-09-15T17:18:56.530Z,155393.66
2022-09-15T17:21:29.623Z,155362.34
2022-09-15T17:23:59.817Z,155370.19
2022-09-15T17:26:31.619Z,155389.75
2022-09-15T17:29:01.971Z,155379.31
2022-09-15T17:31:32.709Z,155376.69
2022-09-15T17:34:03.491Z,155434.03
2022-09-15T17:36:37.847Z,155368.91
2022-09-15T17:39:08.045Z,155337.59
2022-09-15T17:41:38.843Z,155345.44
2022-09-15T17:44:13.905Z,155357.16
2022-09-15T17:46:44.882Z,155288.06
2022-09-15T17:49:18.159Z,155310.22
2022-09-15T17:51:51.459Z,155291.97
2022-09-15T17:54:21.717Z,155335.03
2022-09-15T17:56:52.112Z,155306.31
2022-09-15T17:59:22.487Z,155262.03
2022-09-15T18:01:53.221Z,155245.09
2022-09-15T18:04:23.868Z,155246.41
2022-09-15T18:06:57.244Z,155249.03
2022-09-15T18:09:27.302Z,155195.63
2022-09-15T18:11:58.152Z,155183.88
2022-09-15T18:14:29.087Z,155203.41
2022-09-15T18:16:59.656Z,155204.75
2022-09-15T18:19:31.753Z,155174.78
2022-09-15T18:22:09.777Z,155166.97
2022-09-15T18:24:40.884Z,155168.25
2022-09-15T18:27:11.683Z,155163.03
2022-09-15T18:29:42.046Z,155160.47
2022-09-15T18:32:12.120Z,155173.47
2022-09-15T18:34:42.186Z,155173.47
2022-09-15T18:37:15.112Z,155152.63
2022-09-15T18:39:45.179Z,155164.38
2022-09-15T18:42:15.376Z,155131.81
2022-09-15T18:44:45.768Z,155105.78
2022-09-15T18:47:16.112Z,155112.28
2022-09-15T18:49:46.530Z,155105.78
2022-09-15T18:52:19.253Z,155077.09
2022-09-15T18:54:49.629Z,155074.50
2022-09-15T18:57:19.731Z,155014.59
2022-09-15T18:59:49.957Z,155035.44
2022-09-15T19:02:20.174Z,154997.69
2022-09-15T19:04:50.404Z,154997.69
2022-09-15T19:07:28.202Z,155032.81
2022-09-15T19:09:58.639Z,155013.28
2022-09-15T19:12:28.761Z,154991.19
2022-09-15T19:14:58.934Z,154972.94
2022-09-15T19:17:29.203Z,155022.41
2022-09-15T19:20:00.441Z,155009.38
2022-09-15T19:22:33.357Z,155019.84
2022-09-15T19:25:03.418Z,155035.44
2022-09-15T19:27:33.569Z,155009.38
2022-09-15T19:30:06.745Z,154970.38
2022-09-15T19:32:36.866Z,154945.66
2022-09-15T19:35:07.394Z,154957.34
2022-09-15T19:37:44.080Z,154917.00
2022-09-15T19:40:16.969Z,154911.81
2022-09-15T19:42:48.251Z,154930.00
2022-09-15T19:45:19.399Z,154963.84
2022-09-15T19:47:49.599Z,154954.72
2022-09-15T19:50:19.816Z,154937.81
2022-09-15T19:52:54.291Z,154966.47
2022-09-15T19:55:28.928Z,154962.53
2022-09-15T19:57:59.047Z,154928.69
2022-09-15T20:00:31.319Z,154937.81
2022-09-15T20:03:01.446Z,154905.25
2022-09-15T20:05:31.545Z,154902.69
2022-09-15T20:08:04.410Z,154935.25
2022-09-15T20:10:34.450Z,154952.13
2022-09-15T20:13:04.529Z,154943.03
2022-09-15T20:15:34.932Z,154957.34
2022-09-15T20:18:05.450Z,154957.34
2022-09-15T20:20:36.159Z,154958.63
2022-09-15T20:23:08.827Z,154911.81
2022-09-15T20:25:39.140Z,154966.47
2022-09-15T20:28:09.215Z,154909.19
2022-09-15T20:30:39.883Z,154952.13
2022-09-15T20:33:10.072Z,154956.06
2022-09-15T20:35:40.527Z,154949.50
2022-09-15T20:38:13.224Z,154898.78
2022-09-15T20:40:43.448Z,154922.22
2022-09-15T20:43:13.530Z,154888.38
2022-09-15T20:45:43.973Z,154922.22
2022-09-15T20:48:14.149Z,154915.72
2022-09-15T20:50:44.321Z,154950.84
2022-09-15T20:53:17.215Z,154953.44
2022-09-15T20:55:52.702Z,154950.84
2022-09-15T20:58:23.045Z,154924.78
2022-09-15T21:00:53.538Z,154926.13
2022-09-15T21:03:25.838Z,154949.50
2022-09-15T21:06:02.748Z,154941.72
2022-09-15T21:08:35.909Z,154923.50
2022-09-15T21:11:07.239Z,154939.09
2022-09-15T21:13:39.038Z,154930.00
2022-09-15T21:16:11.862Z,154948.22
2022-09-15T21:18:42.959Z,154927.41
2022-09-15T21:21:15.093Z,154932.63
2022-09-15T21:23:49.405Z,154931.31
2022-09-15T21:26:21.154Z,154940.44
2022-09-15T21:28:51.455Z,154922.22
2022-09-15T21:31:26.309Z,154948.22
2022-09-15T21:33:57.192Z,154962.53
2022-09-15T21:36:29.877Z,154956.06
2022-09-15T21:39:02.976Z,154935.25
2022-09-15T21:41:33.284Z,154930.00
2022-09-15T21:44:03.842Z,154877.97
2022-09-15T21:46:34.467Z,154917.00
2022-09-15T21:49:04.790Z,154909.19
2022-09-15T21:51:35.095Z,154875.34
2022-09-15T21:54:07.945Z,154889.66
2022-09-15T21:56:38.022Z,154930.00
2022-09-15T21:59:09.164Z,154927.41
2022-09-15T22:01:39.908Z,154917.00
2022-09-15T22:04:11.692Z,154883.16
2022-09-15T22:06:43.906Z,154888.38
2022-09-15T22:09:20.772Z,154901.41
2022-09-15T22:11:51.374Z,154902.69
2022-09-15T22:14:21.603Z,154919.59
2022-09-15T22:16:52.038Z,154888.38
2022-09-15T22:19:22.512Z,154859.72
2022-09-15T22:21:52.763Z,154846.69
2022-09-15T22:24:25.439Z,154824.56
2022-09-15T22:26:55.509Z,154827.19
2022-09-15T22:29:26.179Z,154819.34
2022-09-15T22:31:56.266Z,154833.66
2022-09-15T22:34:26.382Z,154842.78
2022-09-15T22:36:56.444Z,154846.69
2022-09-15T22:39:50.281Z,154840.16
2022-09-15T22:42:19.402Z,154848.00
2022-09-15T22:44:49.946Z,154876.69
2022-09-15T22:47:20.033Z,154887.06
2022-09-15T22:49:50.103Z,154840.16
2022-09-15T22:52:21.295Z,154845.38
2022-09-15T22:54:53.950Z,154845.38
2022-09-15T22:57:25.213Z,154855.88
2022-09-15T22:59:55.292Z,154876.69
2022-09-15T23:02:25.566Z,154868.84
2022-09-15T23:04:55.784Z,154850.63
2022-09-15T23:07:26.112Z,154836.31
2022-09-15T23:09:58.894Z,154836.31
2022-09-15T23:12:29.117Z,154837.59
2022-09-15T23:15:03.988Z,154846.69
2022-09-15T23:17:34.363Z,154819.34
2022-09-15T23:20:05.083Z,154832.38
2022-09-15T23:22:35.177Z,154825.91
2022-09-15T23:25:08.571Z,154816.78
2022-09-15T23:27:38.662Z,154842.78
2022-09-15T23:30:09.679Z,154859.72
2022-09-15T23:32:39.916Z,154837.59
2022-09-15T23:35:11.269Z,154812.88
2022-09-15T23:37:41.476Z,154776.47
2022-09-15T23:40:14.920Z,154775.13
2022-09-15T23:42:44.978Z,154795.97
2022-09-15T23:45:15.975Z,154793.34
2022-09-15T23:47:46.101Z,154790.72
2022-09-15T23:50:16.297Z,154812.88
2022-09-15T23:52:46.681Z,154814.16
2022-09-15T23:55:19.615Z,154825.91
2022-09-15T23:57:49.709Z,154801.19
